sensor_id;sensor_type;location;lat;lon;timestamp;noise_LAeq;noise_LA_min;noise_LA_max;noise_LA01;noise_LA95
77134;Laerm;25175;50.140;18.990;2023-04-01T07:13:12;44.10;36.15;56.87;;
77134;Laerm;25175;50.140;18.990;2023-04-01T07:16:27;46.53;36.76;64.80;;
77134;Laerm;25175;50.140;18.990;2023-04-01T07:19:45;44.59;36.45;61.44;;
77134;Laerm;25175;50.140;18.990;2023-04-01T07:22:58;46.32;35.68;62.92;;
77134;Laerm;25175;50.140;18.990;2023-04-01T07:26:19;43.95;36.11;57.13;;
77134;Laerm;25175;50.140;18.990;2023-04-01T07:29:42;44.03;36.11;56.06;;
77134;Laerm;25175;50.140;18.990;2023-04-01T07:33:01;45.05;36.04;59.73;;
77134;Laerm;25175;50.140;18.990;2023-04-01T07:36:17;43.44;35.54;56.24;;
77134;Laerm;25175;50.140;18.990;2023-04-01T07:39:39;44.73;35.79;57.92;;
77134;Laerm;25175;50.140;18.990;2023-04-01T07:43:55;45.55;36.07;62.75;;
77134;Laerm;25175;50.140;18.990;2023-04-01T07:47:34;44.80;36.17;59.07;;
77134;Laerm;25175;50.140;18.990;2023-04-01T07:50:56;45.82;36.50;57.68;;
77134;Laerm;25175;50.140;18.990;2023-04-01T07:54:18;46.09;35.08;61.18;;
77134;Laerm;25175;50.140;18.990;2023-04-01T07:57:40;45.95;35.67;61.95;;
77134;Laerm;25175;50.140;18.990;2023-04-01T08:01:01;51.73;36.10;71.59;;
77134;Laerm;25175;50.140;18.990;2023-04-01T08:04:44;43.32;35.10;57.45;;
77134;Laerm;25175;50.140;18.990;2023-04-01T08:08:15;45.75;34.94;60.88;;
77134;Laerm;25175;50.140;18.990;2023-04-01T08:12:12;48.17;35.86;60.52;;
77134;Laerm;25175;50.140;18.990;2023-04-01T08:15:54;45.24;35.53;57.25;;
77134;Laerm;25175;50.140;18.990;2023-04-01T08:19:31;47.12;35.66;66.17;;
77134;Laerm;25175;50.140;18.990;2023-04-01T08:22:50;45.36;35.32;60.93;;
77134;Laerm;25175;50.140;18.990;2023-04-01T08:26:14;47.65;35.47;66.12;;
77134;Laerm;25175;50.140;18.990;2023-04-01T08:29:34;46.37;35.96;63.43;;
77134;Laerm;25175;50.140;18.990;2023-04-01T08:32:50;44.39;34.68;59.59;;
77134;Laerm;25175;50.140;18.990;2023-04-01T08:36:10;45.60;35.40;57.04;;
77134;Laerm;25175;50.140;18.990;2023-04-01T08:39:28;46.70;36.16;61.49;;
77134;Laerm;25175;50.140;18.990;2023-04-01T08:43:05;44.40;35.25;60.10;;
77134;Laerm;25175;50.140;18.990;2023-04-01T08:46:56;46.06;36.22;57.48;;
77134;Laerm;25175;50.140;18.990;2023-04-01T08:50:36;46.47;36.77;60.24;;
77134;Laerm;25175;50.140;18.990;2023-04-01T08:54:49;45.43;36.28;57.07;;
77134;Laerm;25175;50.140;18.990;2023-04-01T08:58:58;47.46;37.74;59.74;;
77134;Laerm;25175;50.140;18.990;2023-04-01T09:02:51;45.59;37.51;57.24;;
77134;Laerm;25175;50.140;18.990;2023-04-01T09:06:50;47.27;36.82;64.19;;
77134;Laerm;25175;50.140;18.990;2023-04-01T09:10:38;45.71;35.67;59.60;;
77134;Laerm;25175;50.140;18.990;2023-04-01T09:14:48;45.70;36.91;60.18;;
77134;Laerm;25175;50.140;18.990;2023-04-01T09:18:43;47.87;36.12;59.58;;
77134;Laerm;25175;50.140;18.990;2023-04-01T09:22:21;43.15;34.52;57.11;;
77134;Laerm;25175;50.140;18.990;2023-04-01T09:26:11;45.60;35.69;61.10;;
77134;Laerm;25175;50.140;18.990;2023-04-01T09:29:50;44.34;35.47;54.95;;
77134;Laerm;25175;50.140;18.990;2023-04-01T09:37:41;47.80;36.11;68.96;;
77134;Laerm;25175;50.140;18.990;2023-04-01T09:41:17;44.09;36.16;60.07;;
77134;Laerm;25175;50.140;18.990;2023-04-01T09:45:04;46.83;36.55;66.92;;
77134;Laerm;25175;50.140;18.990;2023-04-01T09:48:35;51.05;36.56;78.18;;
77134;Laerm;25175;50.140;18.990;2023-04-01T09:52:08;47.06;36.94;67.30;;
77134;Laerm;25175;50.140;18.990;2023-04-01T10:04:25;48.09;36.38;65.11;;
77134;Laerm;25175;50.140;18.990;2023-04-01T10:08:25;46.39;36.28;58.79;;
77134;Laerm;25175;50.140;18.990;2023-04-01T10:12:47;46.87;37.09;65.54;;
77134;Laerm;25175;50.140;18.990;2023-04-01T10:16:45;46.31;38.48;64.73;;
77134;Laerm;25175;50.140;18.990;2023-04-01T10:20:56;47.03;37.42;61.73;;
77134;Laerm;25175;50.140;18.990;2023-04-01T10:24:56;47.15;37.46;61.87;;
77134;Laerm;25175;50.140;18.990;2023-04-01T10:33:10;47.37;36.50;58.64;;
77134;Laerm;25175;50.140;18.990;2023-04-01T10:36:52;47.03;38.76;58.97;;
77134;Laerm;25175;50.140;18.990;2023-04-01T10:40:41;48.07;36.50;64.27;;
77134;Laerm;25175;50.140;18.990;2023-04-01T10:44:29;49.71;36.37;70.72;;
77134;Laerm;25175;50.140;18.990;2023-04-01T10:48:21;46.38;36.02;67.17;;
77134;Laerm;25175;50.140;18.990;2023-04-01T10:51:53;46.05;35.34;61.86;;
77134;Laerm;25175;50.140;18.990;2023-04-01T10:55:54;45.32;35.33;59.36;;
77134;Laerm;25175;50.140;18.990;2023-04-01T11:13:23;45.24;36.45;55.96;;
77134;Laerm;25175;50.140;18.990;2023-04-01T11:18:07;47.48;37.43;64.92;;
77134;Laerm;25175;50.140;18.990;2023-04-01T11:21:49;47.43;35.79;67.51;;
77134;Laerm;25175;50.140;18.990;2023-04-01T11:25:42;44.77;35.81;57.84;;
77134;Laerm;25175;50.140;18.990;2023-04-01T11:30:02;44.21;34.88;63.82;;
77134;Laerm;25175;50.140;18.990;2023-04-01T11:33:28;48.15;35.04;61.84;;
77134;Laerm;25175;50.140;18.990;2023-04-01T11:36:56;46.13;34.55;62.39;;
77134;Laerm;25175;50.140;18.990;2023-04-01T11:40:29;45.94;34.61;63.01;;
77134;Laerm;25175;50.140;18.990;2023-04-01T11:44:18;46.63;35.28;62.16;;
77134;Laerm;25175;50.140;18.990;2023-04-01T11:48:12;47.35;35.14;60.63;;
77134;Laerm;25175;50.140;18.990;2023-04-01T11:51:48;47.47;35.44;70.60;;
77134;Laerm;25175;50.140;18.990;2023-04-01T11:55:19;58.79;36.05;76.78;;
77134;Laerm;25175;50.140;18.990;2023-04-01T11:59:03;57.87;35.36;78.67;;
77134;Laerm;25175;50.140;18.990;2023-04-01T12:02:34;47.85;36.22;63.63;;
77134;Laerm;25175;50.140;18.990;2023-04-01T12:05:59;44.07;35.53;62.08;;
77134;Laerm;25175;50.140;18.990;2023-04-01T12:09:20;45.99;36.58;58.11;;
77134;Laerm;25175;50.140;18.990;2023-04-01T12:12:45;55.96;36.36;74.38;;
77134;Laerm;25175;50.140;18.990;2023-04-01T12:16:20;54.33;36.16;69.64;;
77134;Laerm;25175;50.140;18.990;2023-04-01T12:19:50;52.99;35.65;68.09;;
77134;Laerm;25175;50.140;18.990;2023-04-01T12:23:29;48.87;39.63;66.21;;
77134;Laerm;25175;50.140;18.990;2023-04-01T12:27:07;45.16;36.48;58.52;;
77134;Laerm;25175;50.140;18.990;2023-04-01T12:30:53;47.17;36.15;68.21;;
77134;Laerm;25175;50.140;18.990;2023-04-01T12:34:52;45.99;35.33;60.45;;
77134;Laerm;25175;50.140;18.990;2023-04-01T12:38:23;45.65;35.12;59.89;;
77134;Laerm;25175;50.140;18.990;2023-04-01T12:41:46;50.73;42.16;64.13;;
77134;Laerm;25175;50.140;18.990;2023-04-01T12:45:32;49.27;36.87;62.37;;
77134;Laerm;25175;50.140;18.990;2023-04-01T12:49:38;44.20;36.26;57.70;;
77134;Laerm;25175;50.140;18.990;2023-04-01T12:53:21;44.06;35.67;58.04;;
77134;Laerm;25175;50.140;18.990;2023-04-01T12:56:57;45.87;35.77;62.73;;
77134;Laerm;25175;50.140;18.990;2023-04-01T13:00:27;44.82;35.64;59.64;;
77134;Laerm;25175;50.140;18.990;2023-04-01T13:04:14;44.67;37.50;57.01;;
77134;Laerm;25175;50.140;18.990;2023-04-01T13:11:30;46.24;35.93;62.68;;
77134;Laerm;25175;50.140;18.990;2023-04-01T13:18:43;44.88;35.04;61.30;;
77134;Laerm;25175;50.140;18.990;2023-04-01T13:22:15;45.14;34.98;62.47;;
77134;Laerm;25175;50.140;18.990;2023-04-01T13:25:37;43.95;35.32;56.22;;
77134;Laerm;25175;50.140;18.990;2023-04-01T13:28:57;63.22;34.29;91.55;;
77134;Laerm;25175;50.140;18.990;2023-04-01T13:32:26;45.96;35.25;65.75;;
77134;Laerm;25175;50.140;18.990;2023-04-01T13:35:55;45.30;35.72;65.85;;
77134;Laerm;25175;50.140;18.990;2023-04-01T13:39:41;44.07;35.44;77.37;;
77134;Laerm;25175;50.140;18.990;2023-04-01T13:43:19;48.60;35.29;65.66;;
77134;Laerm;25175;50.140;18.990;2023-04-01T13:46:55;44.46;35.40;62.39;;
77134;Laerm;25175;50.140;18.990;2023-04-01T13:58:17;45.86;36.67;62.59;;
77134;Laerm;25175;50.140;18.990;2023-04-01T14:01:41;45.44;35.90;58.78;;
77134;Laerm;25175;50.140;18.990;2023-04-01T14:05:25;44.00;36.67;61.03;;
77134;Laerm;25175;50.140;18.990;2023-04-01T14:09:15;44.06;35.59;61.63;;
77134;Laerm;25175;50.140;18.990;2023-04-01T14:12:38;46.18;36.34;75.22;;
77134;Laerm;25175;50.140;18.990;2023-04-01T14:16:27;47.02;36.13;61.59;;
77134;Laerm;25175;50.140;18.990;2023-04-01T14:20:36;49.30;39.85;59.46;;
77134;Laerm;25175;50.140;18.990;2023-04-01T14:24:23;45.34;37.46;60.58;;
77134;Laerm;25175;50.140;18.990;2023-04-01T14:27:54;54.71;37.14;63.49;;
77134;Laerm;25175;50.140;18.990;2023-04-01T14:31:44;52.78;43.10;62.22;;
77134;Laerm;25175;50.140;18.990;2023-04-01T14:35:28;49.65;36.89;63.99;;
77134;Laerm;25175;50.140;18.990;2023-04-01T14:39:00;46.58;36.07;72.55;;
77134;Laerm;25175;50.140;18.990;2023-04-01T14:42:48;42.72;35.16;56.69;;
77134;Laerm;25175;50.140;18.990;2023-04-01T14:47:06;46.76;35.73;63.13;;
77134;Laerm;25175;50.140;18.990;2023-04-01T14:50:24;47.69;35.05;63.37;;
77134;Laerm;25175;50.140;18.990;2023-04-01T14:54:11;46.52;36.05;60.22;;
77134;Laerm;25175;50.140;18.990;2023-04-01T15:05:39;50.25;41.99;59.56;;
77134;Laerm;25175;50.140;18.990;2023-04-01T15:09:02;47.95;40.77;59.82;;
77134;Laerm;25175;50.140;18.990;2023-04-01T15:12:28;48.49;39.42;72.82;;
77134;Laerm;25175;50.140;18.990;2023-04-01T15:20:10;46.35;35.32;58.54;;
77134;Laerm;25175;50.140;18.990;2023-04-01T15:23:38;44.61;35.54;57.53;;
77134;Laerm;25175;50.140;18.990;2023-04-01T15:27:15;46.25;35.53;61.81;;
77134;Laerm;25175;50.140;18.990;2023-04-01T15:30:36;47.69;36.10;61.50;;
77134;Laerm;25175;50.140;18.990;2023-04-01T15:34:16;41.52;35.15;58.12;;
77134;Laerm;25175;50.140;18.990;2023-04-01T15:37:43;45.26;35.84;58.92;;
77134;Laerm;25175;50.140;18.990;2023-04-01T15:42:04;46.34;35.07;65.05;;
77134;Laerm;25175;50.140;18.990;2023-04-01T15:45:35;45.15;34.51;57.69;;
77134;Laerm;25175;50.140;18.990;2023-04-01T15:49:03;44.31;34.39;60.20;;
77134;Laerm;25175;50.140;18.990;2023-04-01T15:56:40;46.85;35.27;62.51;;
77134;Laerm;25175;50.140;18.990;2023-04-01T16:00:05;45.88;35.10;59.97;;
77134;Laerm;25175;50.140;18.990;2023-04-01T16:03:38;44.47;34.97;59.01;;
77134;Laerm;25175;50.140;18.990;2023-04-01T16:07:10;45.89;35.20;57.32;;
77134;Laerm;25175;50.140;18.990;2023-04-01T16:10:47;46.52;34.92;65.14;;
77134;Laerm;25175;50.140;18.990;2023-04-01T16:14:18;46.37;35.47;60.00;;
77134;Laerm;25175;50.140;18.990;2023-04-01T16:17:53;43.71;34.51;56.79;;
77134;Laerm;25175;50.140;18.990;2023-04-01T16:21:08;43.66;34.34;65.16;;
77134;Laerm;25175;50.140;18.990;2023-04-01T16:24:34;39.30;33.92;57.02;;
77134;Laerm;25175;50.140;18.990;2023-04-01T16:28:03;44.77;35.02;57.70;;
77134;Laerm;25175;50.140;18.990;2023-04-01T16:31:38;44.74;35.43;56.30;;
77134;Laerm;25175;50.140;18.990;2023-04-01T16:35:10;42.21;35.43;55.69;;
77134;Laerm;25175;50.140;18.990;2023-04-01T16:38:35;43.18;34.75;56.51;;
77134;Laerm;25175;50.140;18.990;2023-04-01T16:41:52;47.56;35.35;62.34;;
77134;Laerm;25175;50.140;18.990;2023-04-01T16:45:28;43.23;35.26;58.77;;
77134;Laerm;25175;50.140;18.990;2023-04-01T16:52:47;47.58;35.07;67.67;;
77134;Laerm;25175;50.140;18.990;2023-04-01T16:56:07;43.61;35.26;59.93;;
77134;Laerm;25175;50.140;18.990;2023-04-01T16:59:29;43.38;35.04;56.13;;
77134;Laerm;25175;50.140;18.990;2023-04-01T17:03:16;46.53;35.62;67.07;;
77134;Laerm;25175;50.140;18.990;2023-04-01T17:06:44;48.69;35.79;66.75;;
77134;Laerm;25175;50.140;18.990;2023-04-01T17:10:17;42.67;34.70;54.14;;
77134;Laerm;25175;50.140;18.990;2023-04-01T17:13:46;42.29;34.69;53.94;;
77134;Laerm;25175;50.140;18.990;2023-04-01T17:17:18;43.96;34.72;59.69;;
77134;Laerm;25175;50.140;18.990;2023-04-01T17:20:58;42.00;34.64;55.97;;
77134;Laerm;25175;50.140;18.990;2023-04-01T17:24:32;43.62;34.54;57.62;;
77134;Laerm;25175;50.140;18.990;2023-04-01T17:27:59;42.59;34.33;59.56;;
77134;Laerm;25175;50.140;18.990;2023-04-01T17:31:33;43.11;34.24;61.08;;
77134;Laerm;25175;50.140;18.990;2023-04-01T17:35:22;42.00;34.58;57.06;;
77134;Laerm;25175;50.140;18.990;2023-04-01T17:39:45;44.19;35.00;56.25;;
77134;Laerm;25175;50.140;18.990;2023-04-01T17:43:22;48.17;34.88;68.80;;
77134;Laerm;25175;50.140;18.990;2023-04-01T17:47:03;49.74;35.12;72.92;;
77134;Laerm;25175;50.140;18.990;2023-04-01T17:50:30;44.56;35.72;60.52;;
77134;Laerm;25175;50.140;18.990;2023-04-01T18:02:47;41.97;34.71;58.95;;
77134;Laerm;25175;50.140;18.990;2023-04-01T18:10:28;42.16;34.36;55.94;;
77134;Laerm;25175;50.140;18.990;2023-04-01T18:14:25;43.61;34.32;62.91;;
77134;Laerm;25175;50.140;18.990;2023-04-01T18:21:45;45.47;36.10;58.29;;
77134;Laerm;25175;50.140;18.990;2023-04-01T18:37:13;44.52;36.76;56.03;;
77134;Laerm;25175;50.140;18.990;2023-04-01T18:50:11;45.26;35.84;58.63;;
77134;Laerm;25175;50.140;18.990;2023-04-01T18:53:39;39.99;34.98;48.91;;
77134;Laerm;25175;50.140;18.990;2023-04-01T18:57:13;44.71;35.16;60.40;;
77134;Laerm;25175;50.140;18.990;2023-04-01T19:05:14;43.81;34.87;59.62;;
77134;Laerm;25175;50.140;18.990;2023-04-01T19:13:33;40.31;33.96;57.36;;
77134;Laerm;25175;50.140;18.990;2023-04-01T19:17:45;43.29;34.22;63.48;;
77134;Laerm;25175;50.140;18.990;2023-04-01T19:22:49;41.85;34.13;57.91;;
77134;Laerm;25175;50.140;18.990;2023-04-01T19:26:04;43.87;34.01;61.02;;
77134;Laerm;25175;50.140;18.990;2023-04-01T19:35:43;38.05;33.76;52.26;;
77134;Laerm;25175;50.140;18.990;2023-04-01T19:45:51;41.63;33.66;57.61;;
77134;Laerm;25175;50.140;18.990;2023-04-01T19:49:58;40.91;33.93;55.52;;
77134;Laerm;25175;50.140;18.990;2023-04-01T19:53:25;40.11;33.66;62.03;;
77134;Laerm;25175;50.140;18.990;2023-04-01T19:57:17;39.52;33.72;55.36;;
77134;Laerm;25175;50.140;18.990;2023-04-01T20:04:40;41.21;33.58;53.27;;
77134;Laerm;25175;50.140;18.990;2023-04-01T20:12:04;41.38;33.89;53.32;;
77134;Laerm;25175;50.140;18.990;2023-04-01T20:15:37;41.12;34.82;52.49;;
77134;Laerm;25175;50.140;18.990;2023-04-01T20:18:56;41.97;33.69;59.08;;
77134;Laerm;25175;50.140;18.990;2023-04-01T20:22:38;36.57;33.63;48.66;;
77134;Laerm;25175;50.140;18.990;2023-04-01T20:26:10;39.89;33.95;52.91;;
77134;Laerm;25175;50.140;18.990;2023-04-01T20:29:41;40.60;34.70;52.45;;
77134;Laerm;25175;50.140;18.990;2023-04-01T20:33:28;38.00;33.72;53.94;;
77134;Laerm;25175;50.140;18.990;2023-04-01T20:37:00;41.07;33.81;60.68;;
77134;Laerm;25175;50.140;18.990;2023-04-01T20:40:33;36.83;33.72;48.02;;
77134;Laerm;25175;50.140;18.990;2023-04-01T20:44:04;36.18;33.77;46.13;;
77134;Laerm;25175;50.140;18.990;2023-04-01T20:47:37;35.62;33.75;47.26;;
77134;Laerm;25175;50.140;18.990;2023-04-01T20:55:47;39.02;34.07;54.66;;
77134;Laerm;25175;50.140;18.990;2023-04-01T20:59:21;37.57;33.91;49.35;;
77134;Laerm;25175;50.140;18.990;2023-04-01T21:03:15;39.09;33.51;53.24;;
77134;Laerm;25175;50.140;18.990;2023-04-01T21:07:20;39.16;33.68;53.43;;
77134;Laerm;25175;50.140;18.990;2023-04-01T21:10:43;35.28;33.47;46.72;;
77134;Laerm;25175;50.140;18.990;2023-04-01T21:18:08;38.94;33.66;60.20;;
77134;Laerm;25175;50.140;18.990;2023-04-01T21:26:07;37.72;33.65;51.98;;
77134;Laerm;25175;50.140;18.990;2023-04-01T21:29:51;37.90;33.46;53.29;;
77134;Laerm;25175;50.140;18.990;2023-04-01T21:33:31;38.81;33.58;53.38;;
77134;Laerm;25175;50.140;18.990;2023-04-01T21:37:06;34.97;33.16;43.82;;
77134;Laerm;25175;50.140;18.990;2023-04-01T21:45:06;39.61;33.27;52.16;;
77134;Laerm;25175;50.140;18.990;2023-04-01T21:49:09;39.94;33.02;61.32;;
77134;Laerm;25175;50.140;18.990;2023-04-01T21:52:45;37.39;33.25;51.86;;
77134;Laerm;25175;50.140;18.990;2023-04-01T21:56:43;34.86;32.93;40.63;;
77134;Laerm;25175;50.140;18.990;2023-04-01T22:00:13;36.99;33.02;52.46;;
77134;Laerm;25175;50.140;18.990;2023-04-01T22:04:00;38.82;33.02;52.50;;
77134;Laerm;25175;50.140;18.990;2023-04-01T22:07:17;37.28;32.90;53.01;;
77134;Laerm;25175;50.140;18.990;2023-04-01T22:14:47;36.83;33.32;49.59;;
77134;Laerm;25175;50.140;18.990;2023-04-01T22:18:15;35.86;33.51;50.41;;
77134;Laerm;25175;50.140;18.990;2023-04-01T22:22:02;39.98;33.00;54.16;;
77134;Laerm;25175;50.140;18.990;2023-04-01T22:25:27;34.74;32.67;42.57;;
77134;Laerm;25175;50.140;18.990;2023-04-01T22:33:34;37.56;33.12;52.27;;
77134;Laerm;25175;50.140;18.990;2023-04-01T22:37:18;34.61;32.77;45.38;;
77134;Laerm;25175;50.140;18.990;2023-04-01T22:44:26;34.49;32.42;41.37;;
77134;Laerm;25175;50.140;18.990;2023-04-01T22:47:50;38.91;33.05;62.20;;
77134;Laerm;25175;50.140;18.990;2023-04-01T22:51:23;38.46;32.53;64.38;;
77134;Laerm;25175;50.140;18.990;2023-04-01T22:54:40;36.64;32.94;49.50;;
77134;Laerm;25175;50.140;18.990;2023-04-01T22:58:08;38.38;33.06;54.18;;
77134;Laerm;25175;50.140;18.990;2023-04-01T23:01:23;38.60;32.82;58.29;;
77134;Laerm;25175;50.140;18.990;2023-04-01T23:04:38;45.55;32.91;66.36;;
77134;Laerm;25175;50.140;18.990;2023-04-01T23:08:02;34.80;32.82;41.05;;
77134;Laerm;25175;50.140;18.990;2023-04-01T23:11:20;34.69;32.89;41.31;;
77134;Laerm;25175;50.140;18.990;2023-04-01T23:14:47;39.23;32.78;56.42;;
77134;Laerm;25175;50.140;18.990;2023-04-01T23:18:25;34.41;32.59;39.86;;
77134;Laerm;25175;50.140;18.990;2023-04-01T23:22:01;34.31;32.28;37.84;;
77134;Laerm;25175;50.140;18.990;2023-04-01T23:29:53;35.73;32.77;48.38;;
77134;Laerm;25175;50.140;18.990;2023-04-01T23:33:13;34.20;32.63;40.39;;
77134;Laerm;25175;50.140;18.990;2023-04-01T23:36:26;34.26;32.64;39.17;;
77134;Laerm;25175;50.140;18.990;2023-04-01T23:39:45;37.69;32.69;56.15;;
77134;Laerm;25175;50.140;18.990;2023-04-01T23:43:17;34.28;32.64;40.73;;
77134;Laerm;25175;50.140;18.990;2023-04-01T23:46:37;34.73;32.80;41.51;;
77134;Laerm;25175;50.140;18.990;2023-04-01T23:54:09;35.96;32.65;50.52;;
77134;Laerm;25175;50.140;18.990;2023-04-01T23:57:22;34.14;32.61;40.62;;
